createdAt,value
2018-04-23T00:00:48.543Z,10.90
2018-04-23T00:03:15.286Z,11.30
2018-04-23T00:05:42.056Z,11.27
2018-04-23T00:08:08.805Z,10.63
2018-04-23T00:10:35.573Z,10.90
2018-04-23T00:13:02.309Z,11.23
2018-04-23T00:15:29.061Z,11.20
2018-04-23T00:17:55.842Z,12.63
2018-04-23T00:20:22.607Z,12.13
2018-04-23T00:22:49.352Z,12.15
2018-04-23T00:25:16.142Z,12.05
2018-04-23T00:27:42.875Z,11.15
2018-04-23T00:30:09.621Z,12.30
2018-04-23T00:32:36.382Z,10.80
2018-04-23T00:35:03.107Z,11.90
2018-04-23T00:37:29.880Z,12.25
2018-04-23T00:39:56.631Z,13.00
2018-04-23T00:42:23.379Z,13.05
2018-04-23T00:44:50.183Z,12.88
2018-04-23T00:47:16.937Z,12.85
2018-04-23T00:49:43.692Z,12.77
2018-04-23T00:52:10.427Z,13.43
2018-04-23T00:54:37.214Z,12.70
2018-04-23T00:57:03.957Z,14.13
2018-04-23T00:59:30.717Z,14.05
2018-04-23T01:01:57.520Z,12.20
2018-04-23T01:04:24.311Z,13.45
2018-04-23T01:06:51.051Z,12.60
2018-04-23T01:09:17.829Z,14.40
2018-04-23T01:11:44.663Z,13.98
2018-04-23T01:14:11.404Z,14.52
2018-04-23T01:16:38.163Z,14.75
2018-04-23T01:19:04.892Z,14.65
2018-04-23T01:21:31.650Z,15.02
2018-04-23T01:23:58.381Z,15.07
2018-04-23T01:26:25.168Z,14.52
2018-04-23T01:28:51.890Z,15.40
2018-04-23T01:31:18.665Z,15.00
2018-04-23T01:33:45.431Z,17.25
2018-04-23T01:36:12.206Z,17.00
2018-04-23T01:38:38.930Z,15.40
2018-04-23T01:41:05.699Z,16.05
2018-04-23T01:43:32.438Z,16.37
2018-04-23T01:45:59.178Z,17.62
2018-04-23T01:48:25.937Z,16.37
2018-04-23T01:50:52.687Z,16.65
2018-04-23T01:53:19.476Z,17.87
2018-04-23T01:55:46.214Z,16.75
2018-04-23T01:58:12.999Z,16.75
2018-04-23T02:00:39.837Z,18.55
2018-04-23T02:03:06.583Z,18.52
2018-04-23T02:05:33.339Z,19.33
2018-04-23T02:08:00.086Z,18.55
2018-04-23T02:10:26.846Z,17.42
2018-04-23T02:12:53.595Z,19.52
2018-04-23T02:15:20.359Z,20.15
2018-04-23T02:17:47.181Z,20.45
2018-04-23T02:20:13.925Z,20.05
2018-04-23T02:22:40.691Z,21.40
2018-04-23T02:25:07.858Z,21.77
2018-04-23T02:27:34.658Z,20.05
2018-04-23T02:30:01.380Z,21.17
2018-04-23T02:32:28.172Z,20.75
2018-04-23T02:34:54.940Z,21.33
2018-04-23T02:37:21.794Z,22.02
2018-04-23T02:39:48.627Z,21.98
2018-04-23T02:42:15.463Z,22.52
2018-04-23T02:44:42.300Z,21.75
2018-04-23T02:47:09.051Z,22.10
2018-04-23T02:49:35.812Z,23.92
2018-04-23T02:52:02.691Z,23.98
2018-04-23T02:54:29.465Z,22.85
2018-04-23T02:56:56.220Z,22.40
2018-04-23T02:59:22.956Z,23.60
2018-04-23T03:01:49.834Z,23.77
2018-04-23T03:04:16.627Z,25.10
2018-04-23T03:06:43.971Z,24.77
2018-04-23T03:09:10.718Z,25.25
2018-04-23T03:11:37.481Z,24.52
2018-04-23T03:14:04.239Z,24.00
2018-04-23T03:16:30.976Z,24.30
2018-04-23T03:18:57.748Z,21.20
2018-04-23T03:21:24.541Z,20.90
2018-04-23T03:23:51.330Z,19.67
2018-04-23T03:26:18.166Z,19.50
2018-04-23T03:28:44.937Z,19.05
2018-04-23T03:31:11.703Z,18.75
2018-04-23T03:33:38.446Z,19.67
2018-04-23T03:36:05.263Z,18.33
2018-04-23T03:38:32.069Z,18.92
2018-04-23T03:40:58.883Z,17.95
2018-04-23T03:43:25.630Z,17.55
2018-04-23T03:45:52.354Z,17.70
2018-04-23T03:48:19.110Z,18.48
2018-04-23T03:50:45.836Z,18.75
2018-04-23T03:53:12.560Z,18.37
2018-04-23T03:55:39.313Z,19.60
2018-04-23T03:58:06.068Z,18.00
2018-04-23T04:00:33.078Z,19.40
2018-04-23T04:02:59.890Z,18.62
2018-04-23T04:05:26.619Z,17.75
2018-04-23T04:07:53.391Z,17.50
2018-04-23T04:10:20.133Z,17.87
2018-04-23T04:12:52.830Z,19.02
2018-04-23T04:15:25.280Z,17.30
2018-04-23T04:18:06.905Z,17.20
2018-04-23T04:20:33.664Z,17.12
2018-04-23T04:23:00.414Z,17.62
2018-04-23T04:25:27.160Z,17.55
2018-04-23T04:27:53.910Z,17.83
2018-04-23T04:30:20.631Z,16.67
2018-04-23T04:32:47.383Z,16.58
2018-04-23T04:35:14.138Z,18.52
2018-04-23T04:37:40.875Z,17.30
2018-04-23T04:40:07.641Z,17.30
2018-04-23T04:42:34.399Z,16.33
2018-04-23T04:45:01.188Z,16.70
2018-04-23T04:47:27.955Z,18.00
2018-04-23T04:49:54.696Z,16.00
2018-04-23T04:52:21.441Z,16.90
2018-04-23T04:54:48.198Z,16.95
2018-04-23T04:57:14.927Z,17.27
2018-04-23T04:59:41.682Z,17.55
2018-04-23T05:02:08.410Z,17.00
2018-04-23T05:04:35.142Z,16.33
2018-04-23T05:07:01.920Z,17.15
2018-04-23T05:09:28.655Z,16.85
2018-04-23T05:11:55.393Z,19.35
2018-04-23T05:14:22.154Z,18.45
2018-04-23T05:16:48.883Z,18.75
2018-04-23T05:19:15.594Z,19.87
2018-04-23T05:21:42.342Z,20.20
2018-04-23T05:24:09.067Z,18.87
2018-04-23T05:26:35.852Z,20.30
2018-04-23T05:29:02.710Z,19.47
2018-04-23T05:31:29.442Z,20.10
2018-04-23T05:33:56.235Z,21.20
2018-04-23T05:36:22.966Z,21.93
2018-04-23T05:38:49.690Z,21.03
2018-04-23T05:41:16.457Z,23.23
2018-04-23T05:43:43.177Z,22.97
2018-04-23T05:46:09.931Z,24.70
2018-04-23T05:48:36.661Z,22.87
2018-04-23T05:51:03.435Z,25.03
2018-04-23T05:53:30.969Z,25.53
2018-04-23T05:55:57.861Z,23.47
2018-04-23T05:58:24.588Z,23.23
2018-04-23T06:00:51.349Z,23.07
2018-04-23T06:03:18.097Z,24.80
2018-04-23T06:05:44.862Z,25.07
2018-04-23T06:08:11.605Z,24.87
2018-04-23T06:10:38.356Z,24.13
2018-04-23T06:13:05.080Z,25.90
2018-04-23T06:15:31.809Z,28.27
2018-04-23T06:17:58.560Z,30.97
2018-04-23T06:20:25.279Z,29.50
2018-04-23T06:22:52.039Z,29.47
2018-04-23T06:25:18.788Z,28.10
2018-04-23T06:27:45.540Z,29.17
2018-04-23T06:30:12.283Z,28.70
2018-04-23T06:32:39.069Z,28.57
2018-04-23T06:35:05.816Z,29.70
2018-04-23T06:37:32.539Z,31.23
2018-04-23T06:39:59.286Z,29.60
2018-04-23T06:42:26.008Z,30.70
2018-04-23T06:44:52.764Z,31.00
2018-04-23T06:47:19.483Z,30.37
2018-04-23T06:49:46.206Z,31.47
2018-04-23T06:52:12.962Z,32.10
2018-04-23T06:54:39.717Z,30.63
2018-04-23T06:57:06.460Z,31.73
2018-04-23T06:59:33.232Z,33.60
2018-04-23T07:01:59.990Z,33.57
2018-04-23T07:04:26.773Z,31.93
2018-04-23T07:06:53.516Z,32.10
2018-04-23T07:09:20.240Z,32.70
2018-04-23T07:11:47.004Z,31.70
2018-04-23T07:14:13.761Z,32.47
2018-04-23T07:16:40.510Z,31.20
2018-04-23T07:19:07.292Z,31.00
2018-04-23T07:21:34.024Z,30.90
2018-04-23T07:24:00.834Z,30.37
2018-04-23T07:26:27.578Z,31.03
2018-04-23T07:28:54.335Z,30.77
2018-04-23T07:31:21.072Z,30.97
2018-04-23T07:33:47.837Z,30.70
2018-04-23T07:36:14.600Z,31.37
2018-04-23T07:38:41.374Z,29.70
2018-04-23T07:41:08.105Z,30.50
2018-04-23T07:43:34.857Z,31.20
2018-04-23T07:46:01.610Z,29.97
2018-04-23T07:48:28.385Z,29.83
2018-04-23T07:50:55.110Z,29.60
2018-04-23T07:53:21.835Z,31.93
2018-04-23T07:55:48.597Z,30.33
2018-04-23T07:58:15.323Z,31.90
2018-04-23T08:00:42.068Z,30.70
2018-04-23T08:03:08.787Z,30.07
2018-04-23T08:05:35.557Z,31.17
2018-04-23T08:08:02.291Z,28.37
2018-04-23T08:10:29.060Z,30.90
2018-04-23T08:12:55.828Z,30.37
2018-04-23T08:15:22.551Z,29.23
2018-04-23T08:17:49.306Z,30.07
2018-04-23T08:20:16.059Z,28.50
2018-04-23T08:22:42.846Z,30.00
2018-04-23T08:25:09.598Z,29.90
2018-04-23T08:27:36.344Z,30.20
2018-04-23T08:30:03.107Z,29.30
2018-04-23T08:32:29.912Z,29.70
2018-04-23T08:34:56.666Z,29.13
2018-04-23T08:37:23.398Z,27.73
2018-04-23T08:39:50.138Z,26.30
2018-04-23T08:42:16.889Z,28.10
2018-04-23T08:44:43.659Z,26.03
2018-04-23T08:47:10.399Z,26.77
2018-04-23T08:49:37.196Z,23.53
2018-04-23T08:52:03.891Z,22.70
2018-04-23T08:54:30.611Z,21.80
2018-04-23T08:56:57.362Z,21.83
2018-04-23T08:59:24.097Z,21.83
2018-04-23T09:01:50.845Z,15.70
2018-04-23T09:04:17.575Z,14.30
2018-04-23T09:06:44.327Z,13.70
2018-04-23T09:09:11.058Z,12.77
2018-04-23T09:11:37.816Z,13.20
2018-04-23T09:14:04.547Z,12.20
2018-04-23T09:16:31.331Z,11.00
2018-04-23T09:18:58.089Z,10.00
2018-04-23T09:21:24.807Z,9.77
2018-04-23T09:23:51.580Z,9.97
2018-04-23T09:26:18.294Z,10.37
2018-04-23T09:28:45.041Z,11.30
2018-04-23T09:31:11.788Z,9.30
2018-04-23T09:33:38.549Z,10.20
2018-04-23T09:36:05.282Z,9.87
2018-04-23T09:38:32.038Z,10.70
2018-04-23T09:40:58.763Z,10.60
2018-04-23T09:43:25.486Z,11.67
2018-04-23T09:45:52.240Z,11.17
2018-04-23T09:48:19.011Z,11.70
2018-04-23T09:50:45.782Z,10.27
2018-04-23T09:53:12.507Z,9.80
2018-04-23T09:55:39.255Z,9.97
2018-04-23T09:58:05.988Z,8.83
2018-04-23T10:00:32.750Z,9.03
2018-04-23T10:03:14.372Z,7.90
2018-04-23T10:05:41.089Z,7.97
2018-04-23T10:08:07.840Z,8.23
2018-04-23T10:10:34.570Z,8.77
2018-04-23T10:13:01.741Z,10.33
2018-04-23T10:15:28.451Z,9.77
2018-04-23T10:17:55.176Z,9.43
2018-04-23T10:20:21.947Z,10.07
2018-04-23T10:22:48.703Z,10.40
2018-04-23T10:25:15.432Z,11.83
2018-04-23T10:27:42.178Z,11.07
2018-04-23T10:30:08.925Z,10.50
2018-04-23T10:32:35.668Z,10.40
2018-04-23T10:35:02.419Z,11.13
2018-04-23T10:37:29.144Z,10.80
2018-04-23T10:39:55.889Z,9.90
2018-04-23T10:42:22.615Z,8.73
2018-04-23T10:44:49.380Z,9.20
2018-04-23T10:47:16.111Z,11.13
2018-04-23T10:49:42.834Z,9.47
2018-04-23T10:52:09.590Z,10.03
2018-04-23T10:54:36.307Z,8.70
2018-04-23T10:57:03.055Z,9.20
2018-04-23T10:59:29.787Z,9.10
2018-04-23T11:01:56.609Z,8.40
2018-04-23T11:04:23.309Z,9.40
2018-04-23T11:06:50.090Z,9.07
2018-04-23T11:09:16.882Z,8.90
2018-04-23T11:11:43.603Z,9.00
2018-04-23T11:14:10.361Z,10.00
2018-04-23T11:16:37.123Z,9.70
2018-04-23T11:19:03.872Z,9.73
2018-04-23T11:21:30.603Z,9.57
2018-04-23T11:23:57.341Z,11.70
2018-04-23T11:26:24.087Z,11.00
2018-04-23T11:28:50.819Z,11.13
2018-04-23T11:31:17.587Z,10.80
2018-04-23T11:33:44.322Z,10.17
2018-04-23T11:36:11.083Z,9.90
2018-04-23T11:38:37.812Z,9.80
2018-04-23T11:41:04.596Z,9.57
2018-04-23T11:43:31.342Z,10.67
2018-04-23T11:45:58.216Z,9.30
2018-04-23T11:48:25.077Z,9.97
2018-04-23T11:50:51.831Z,9.80
2018-04-23T11:53:18.584Z,10.40
2018-04-23T11:55:45.326Z,9.60
2018-04-23T11:58:12.570Z,9.13
2018-04-23T12:00:39.334Z,9.40
2018-04-23T12:03:06.081Z,8.43
2018-04-23T12:05:32.821Z,7.50
2018-04-23T12:07:59.586Z,8.40
2018-04-23T12:10:26.366Z,7.77
2018-04-23T12:12:53.117Z,7.00
2018-04-23T12:15:19.861Z,7.30
2018-04-23T12:17:46.722Z,7.27
2018-04-23T12:20:13.497Z,7.37
2018-04-23T12:22:40.251Z,6.97
2018-04-23T12:25:07.044Z,6.73
2018-04-23T12:27:33.767Z,7.30
2018-04-23T12:30:00.490Z,7.70
2018-04-23T12:32:27.270Z,6.90
2018-04-23T12:34:53.987Z,7.43
2018-04-23T12:37:20.750Z,7.90
2018-04-23T12:39:47.551Z,6.60
2018-04-23T12:42:14.277Z,7.63
2018-04-23T12:44:41.000Z,7.60
2018-04-23T12:47:07.744Z,8.37
2018-04-23T12:49:34.455Z,7.50
2018-04-23T12:52:01.185Z,7.20
2018-04-23T12:54:27.935Z,7.93
2018-04-23T12:56:54.650Z,6.47
2018-04-23T12:59:21.399Z,7.50
2018-04-23T13:01:48.123Z,8.87
2018-04-23T13:04:14.888Z,8.27
2018-04-23T13:06:41.614Z,8.00
2018-04-23T13:09:08.368Z,8.10
2018-04-23T13:11:35.144Z,8.30
2018-04-23T13:14:01.859Z,7.80
2018-04-23T13:16:28.596Z,8.10
2018-04-23T13:18:55.350Z,8.03
2018-04-23T13:21:22.071Z,7.10
2018-04-23T13:23:48.796Z,8.37
2018-04-23T13:26:15.539Z,7.47
2018-04-23T13:28:42.256Z,8.27
2018-04-23T13:31:08.977Z,7.97
2018-04-23T13:33:35.726Z,8.00
2018-04-23T13:36:02.450Z,7.70
2018-04-23T13:38:29.196Z,7.83
2018-04-23T13:40:55.915Z,7.50
2018-04-23T13:43:22.655Z,6.70
2018-04-23T13:45:49.373Z,8.20
2018-04-23T13:48:16.106Z,7.50
2018-04-23T13:50:42.835Z,7.80
2018-04-23T13:53:09.582Z,8.57
2018-04-23T13:55:36.329Z,8.00
2018-04-23T13:58:03.059Z,8.63
2018-04-23T14:00:29.818Z,8.23
2018-04-23T14:02:56.545Z,7.60
2018-04-23T14:05:23.295Z,7.00
2018-04-23T14:07:50.010Z,8.10
2018-04-23T14:10:16.776Z,9.43
2018-04-23T14:12:43.491Z,8.90
2018-04-23T14:15:10.261Z,8.63
2018-04-23T14:17:36.988Z,7.50
2018-04-23T14:20:03.724Z,7.60
2018-04-23T14:22:30.482Z,7.60
2018-04-23T14:24:57.243Z,7.30
2018-04-23T14:27:23.999Z,7.07
2018-04-23T14:29:50.759Z,7.80
2018-04-23T14:32:17.513Z,6.63
2018-04-23T14:34:44.263Z,6.87
2018-04-23T14:37:11.008Z,7.03
2018-04-23T14:39:37.727Z,7.10
2018-04-23T14:42:04.436Z,7.43
2018-04-23T14:44:31.180Z,7.50
2018-04-23T14:46:57.908Z,7.47
2018-04-23T14:49:24.664Z,7.70
2018-04-23T14:51:51.409Z,7.90
2018-04-23T14:54:18.192Z,8.40
2018-04-23T14:56:44.915Z,8.60
2018-04-23T14:59:12.622Z,8.60
2018-04-23T15:01:39.372Z,8.60
2018-04-23T15:04:06.096Z,7.97
2018-04-23T15:06:32.842Z,8.37
2018-04-23T15:08:59.567Z,8.30
2018-04-23T15:11:26.288Z,7.97
2018-04-23T15:13:53.048Z,7.60
2018-04-23T15:16:19.779Z,7.90
2018-04-23T15:18:46.519Z,7.77
2018-04-23T15:21:14.169Z,8.40
2018-04-23T15:23:41.032Z,9.80
2018-04-23T15:26:07.761Z,8.60
2018-04-23T15:28:34.549Z,8.73
2018-04-23T15:31:01.312Z,8.00
2018-04-23T15:33:28.062Z,8.70
2018-04-23T15:35:54.837Z,9.13
2018-04-23T15:38:21.586Z,8.63
2018-04-23T15:40:48.308Z,9.10
2018-04-23T15:43:15.078Z,9.77
2018-04-23T15:45:41.831Z,9.30
2018-04-23T15:48:08.575Z,9.20
2018-04-23T15:50:35.326Z,8.33
2018-04-23T15:53:02.060Z,8.70
2018-04-23T15:55:28.812Z,9.00
2018-04-23T15:57:55.595Z,8.53
2018-04-23T16:00:22.418Z,8.90
2018-04-23T16:02:49.142Z,9.53
2018-04-23T16:05:15.889Z,9.33
2018-04-23T16:07:42.642Z,8.20
2018-04-23T16:10:09.399Z,7.83
2018-04-23T16:12:36.114Z,8.97
2018-04-23T16:15:02.927Z,9.00
2018-04-23T16:17:29.649Z,8.60
2018-04-23T16:19:56.368Z,9.20
2018-04-23T16:22:23.136Z,8.60
2018-04-23T16:24:49.858Z,7.83
2018-04-23T16:27:16.629Z,8.67
2018-04-23T16:29:43.377Z,8.17
2018-04-23T16:32:10.091Z,7.47
2018-04-23T16:34:36.830Z,7.70
2018-04-23T16:37:03.564Z,7.70
2018-04-23T16:39:30.616Z,8.30
2018-04-23T16:41:57.594Z,7.20
2018-04-23T16:44:27.168Z,7.87
2018-04-23T16:46:51.678Z,7.67
2018-04-23T16:49:18.417Z,8.70
2018-04-23T16:51:45.198Z,7.87
2018-04-23T16:54:12.016Z,8.80
2018-04-23T16:56:38.795Z,7.83
2018-04-23T16:59:05.551Z,7.03
2018-04-23T17:01:32.282Z,7.40
2018-04-23T17:03:59.011Z,7.83
2018-04-23T17:06:25.767Z,7.07
2018-04-23T17:08:52.506Z,7.90
2018-04-23T17:11:19.264Z,7.63
2018-04-23T17:13:46.010Z,7.50
2018-04-23T17:16:12.747Z,8.23
2018-04-23T17:18:39.484Z,7.13
2018-04-23T17:21:06.241Z,6.90
2018-04-23T17:23:32.958Z,6.90
2018-04-23T17:25:59.794Z,7.07
2018-04-23T17:28:26.538Z,5.80
2018-04-23T17:30:53.292Z,6.63
2018-04-23T17:33:20.054Z,6.40
2018-04-23T17:35:46.777Z,6.40
2018-04-23T17:38:13.556Z,5.97
2018-04-23T17:40:40.313Z,6.37
2018-04-23T17:43:07.046Z,6.40
2018-04-23T17:45:33.795Z,6.90
2018-04-23T17:48:00.506Z,6.20
2018-04-23T17:50:27.254Z,6.27
2018-04-23T17:52:54.010Z,6.70
2018-04-23T17:55:20.810Z,6.10
2018-04-23T17:57:47.561Z,5.72
2018-04-23T18:00:14.286Z,6.57
2018-04-23T18:02:41.039Z,5.25
2018-04-23T18:05:07.800Z,5.90
2018-04-23T18:07:35.402Z,6.15
2018-04-23T18:10:02.423Z,5.87
2018-04-23T18:12:29.178Z,7.43
2018-04-23T18:14:56.370Z,6.55
2018-04-23T18:17:23.180Z,5.93
2018-04-23T18:19:50.122Z,6.70
2018-04-23T18:22:16.954Z,6.47
2018-04-23T18:24:43.739Z,5.75
2018-04-23T18:27:10.478Z,5.87
2018-04-23T18:29:37.243Z,6.07
2018-04-23T18:32:03.994Z,6.40
2018-04-23T18:34:30.762Z,5.12
2018-04-23T18:36:57.528Z,6.07
2018-04-23T18:39:24.248Z,6.10
2018-04-23T18:41:51.010Z,5.80
2018-04-23T18:44:17.737Z,5.82
2018-04-23T18:46:44.480Z,6.07
2018-04-23T18:49:11.236Z,5.45
2018-04-23T18:51:37.966Z,6.10
2018-04-23T18:54:04.720Z,5.72
2018-04-23T18:56:31.443Z,6.32
2018-04-23T18:58:58.262Z,6.10
2018-04-23T19:01:25.120Z,5.95
2018-04-23T19:03:51.893Z,5.97
2018-04-23T19:06:18.622Z,6.07
2018-04-23T19:08:45.386Z,6.10
2018-04-23T19:11:12.166Z,5.80
2018-04-23T19:13:39.123Z,6.00
2018-04-23T19:16:05.902Z,5.72
2018-04-23T19:18:32.622Z,5.95
2018-04-23T19:20:59.348Z,5.97
2018-04-23T19:23:26.113Z,6.20
2018-04-23T19:25:52.867Z,6.37
2018-04-23T19:28:19.617Z,5.70
2018-04-23T19:30:46.518Z,5.37
2018-04-23T19:33:13.256Z,5.45
2018-04-23T19:35:39.982Z,5.70
2018-04-23T19:38:06.763Z,5.50
2018-04-23T19:40:33.757Z,5.70
2018-04-23T19:43:01.059Z,5.70
2018-04-23T19:45:28.407Z,4.95
2018-04-23T19:47:55.299Z,5.60
2018-04-23T19:50:22.027Z,4.68
2018-04-23T19:52:49.076Z,5.07
2018-04-23T19:55:16.721Z,4.45
2018-04-23T19:57:45.001Z,4.82
2018-04-23T20:00:11.881Z,4.47
2018-04-23T20:02:40.504Z,4.53
2018-04-23T20:05:07.850Z,4.82
2018-04-23T20:07:34.642Z,4.60
2018-04-23T20:10:01.392Z,4.95
2018-04-23T20:12:28.116Z,4.82
2018-04-23T20:14:54.872Z,4.85
2018-04-23T20:17:21.616Z,4.78
2018-04-23T20:19:48.335Z,5.45
2018-04-23T20:22:15.139Z,4.35
2018-04-23T20:24:41.899Z,5.00
2018-04-23T20:27:08.635Z,4.93
2018-04-23T20:29:35.362Z,4.70
2018-04-23T20:32:02.106Z,4.68
2018-04-23T20:34:28.928Z,4.60
2018-04-23T20:36:55.671Z,4.15
2018-04-23T20:39:22.410Z,5.10
2018-04-23T20:41:49.133Z,4.22
2018-04-23T20:44:15.923Z,4.80
2018-04-23T20:46:42.689Z,4.68
2018-04-23T20:49:09.438Z,4.40
2018-04-23T20:51:36.179Z,4.43
2018-04-23T20:54:02.922Z,4.75
2018-04-23T20:56:29.672Z,4.22
2018-04-23T20:58:56.565Z,4.97
2018-04-23T21:01:23.319Z,4.80
2018-04-23T21:03:50.237Z,4.57
2018-04-23T21:06:17.157Z,4.50
2018-04-23T21:08:43.906Z,4.45
2018-04-23T21:11:10.752Z,4.12
2018-04-23T21:13:37.453Z,4.50
2018-04-23T21:16:04.218Z,4.37
2018-04-23T21:18:30.947Z,4.43
2018-04-23T21:20:57.688Z,4.07
2018-04-23T21:23:24.425Z,5.03
2018-04-23T21:25:51.197Z,4.45
2018-04-23T21:28:18.171Z,4.70
2018-04-23T21:30:45.234Z,4.75
2018-04-23T21:33:12.228Z,4.82
2018-04-23T21:35:39.036Z,4.15
2018-04-23T21:38:05.875Z,4.95
2018-04-23T21:40:32.759Z,4.60
2018-04-23T21:42:59.502Z,4.70
2018-04-23T21:45:26.370Z,4.40
2018-04-23T21:47:53.235Z,4.40
2018-04-23T21:50:19.998Z,4.40
2018-04-23T21:52:46.826Z,4.40
2018-04-23T21:55:15.044Z,4.22
2018-04-23T21:57:41.847Z,4.30
2018-04-23T22:00:08.571Z,4.40
2018-04-23T22:02:35.294Z,5.20
2018-04-23T22:05:02.084Z,4.80
2018-04-23T22:07:28.844Z,4.78
2018-04-23T22:09:55.564Z,4.70
2018-04-23T22:12:22.321Z,4.75
2018-04-23T22:14:49.038Z,4.80
2018-04-23T22:17:15.759Z,5.05
2018-04-23T22:19:42.499Z,4.45
2018-04-23T22:22:09.295Z,5.25
2018-04-23T22:24:36.017Z,4.80
2018-04-23T22:27:02.764Z,5.10
2018-04-23T22:29:29.498Z,5.18
2018-04-23T22:31:56.271Z,4.82
2018-04-23T22:34:22.983Z,4.72
2018-04-23T22:36:49.706Z,4.82
2018-04-23T22:39:16.446Z,5.10
2018-04-23T22:41:43.171Z,4.35
2018-04-23T22:44:09.902Z,4.90
2018-04-23T22:46:36.695Z,5.32
2018-04-23T22:49:03.374Z,5.40
2018-04-23T22:51:30.138Z,5.03
2018-04-23T22:53:56.861Z,4.70
2018-04-23T22:56:23.583Z,4.80
2018-04-23T22:58:50.331Z,5.62
2018-04-23T23:01:17.054Z,5.62
2018-04-23T23:03:43.770Z,5.97
2018-04-23T23:06:10.516Z,5.10
2018-04-23T23:08:37.248Z,6.40
2018-04-23T23:11:03.978Z,5.85
2018-04-23T23:13:30.748Z,5.28
2018-04-23T23:15:57.471Z,5.72
2018-04-23T23:18:24.190Z,5.43
2018-04-23T23:20:50.962Z,5.50
2018-04-23T23:23:17.722Z,5.30
2018-04-23T23:25:44.488Z,5.75
2018-04-23T23:28:11.203Z,5.28
2018-04-23T23:30:37.948Z,6.03
2018-04-23T23:33:04.700Z,6.07
2018-04-23T23:35:31.423Z,6.60
2018-04-23T23:37:58.154Z,6.18
2018-04-23T23:40:24.902Z,5.80
2018-04-23T23:42:51.657Z,6.30
2018-04-23T23:45:18.406Z,6.10
2018-04-23T23:47:45.158Z,5.80
2018-04-23T23:50:13.413Z,5.70
2018-04-23T23:52:40.143Z,6.00
2018-04-23T23:55:06.882Z,5.68
2018-04-23T23:57:33.591Z,5.97
